sensor_id;sensor_type;location;lat;lon;timestamp;P1;durP1;ratioP1;P2;durP2;ratioP2
11443;SDS011;5778;47.856;12.154;2023-03-23T00:01:38;7.40;;;5.37;;
11443;SDS011;5778;47.856;12.154;2023-03-23T00:04:05;7.23;;;5.40;;
11443;SDS011;5778;47.856;12.154;2023-03-23T00:06:32;6.07;;;5.47;;
11443;SDS011;5778;47.856;12.154;2023-03-23T00:09:00;8.00;;;4.80;;
11443;SDS011;5778;47.856;12.154;2023-03-23T00:11:30;6.77;;;5.37;;
11443;SDS011;5778;47.856;12.154;2023-03-23T00:17:13;6.20;;;4.93;;
11443;SDS011;5778;47.856;12.154;2023-03-23T00:19:39;6.10;;;5.13;;
11443;SDS011;5778;47.856;12.154;2023-03-23T00:22:12;5.57;;;4.47;;
11443;SDS011;5778;47.856;12.154;2023-03-23T00:24:45;5.33;;;4.67;;
11443;SDS011;5778;47.856;12.154;2023-03-23T00:27:13;5.97;;;4.43;;
11443;SDS011;5778;47.856;12.154;2023-03-23T00:29:41;6.03;;;4.33;;
11443;SDS011;5778;47.856;12.154;2023-03-23T00:32:10;6.03;;;4.63;;
11443;SDS011;5778;47.856;12.154;2023-03-23T00:34:46;7.33;;;5.17;;
11443;SDS011;5778;47.856;12.154;2023-03-23T00:37:14;5.40;;;4.20;;
11443;SDS011;5778;47.856;12.154;2023-03-23T00:39:42;5.40;;;4.47;;
11443;SDS011;5778;47.856;12.154;2023-03-23T00:42:11;5.43;;;4.43;;
11443;SDS011;5778;47.856;12.154;2023-03-23T00:44:47;7.47;;;4.80;;
11443;SDS011;5778;47.856;12.154;2023-03-23T00:47:16;5.10;;;4.60;;
11443;SDS011;5778;47.856;12.154;2023-03-23T00:49:43;7.27;;;4.70;;
11443;SDS011;5778;47.856;12.154;2023-03-23T00:52:10;5.73;;;4.37;;
11443;SDS011;5778;47.856;12.154;2023-03-23T00:54:52;5.30;;;3.97;;
11443;SDS011;5778;47.856;12.154;2023-03-23T00:57:19;5.63;;;4.13;;
11443;SDS011;5778;47.856;12.154;2023-03-23T00:59:51;4.90;;;4.40;;
11443;SDS011;5778;47.856;12.154;2023-03-23T01:02:18;5.47;;;4.27;;
11443;SDS011;5778;47.856;12.154;2023-03-23T01:04:45;4.77;;;4.10;;
11443;SDS011;5778;47.856;12.154;2023-03-23T01:07:12;4.63;;;4.10;;
11443;SDS011;5778;47.856;12.154;2023-03-23T01:09:39;4.17;;;3.60;;
11443;SDS011;5778;47.856;12.154;2023-03-23T01:12:11;5.67;;;4.10;;
11443;SDS011;5778;47.856;12.154;2023-03-23T01:14:40;5.03;;;3.90;;
11443;SDS011;5778;47.856;12.154;2023-03-23T01:17:10;5.17;;;3.93;;
11443;SDS011;5778;47.856;12.154;2023-03-23T01:19:37;4.90;;;4.40;;
11443;SDS011;5778;47.856;12.154;2023-03-23T01:22:05;5.90;;;4.67;;
11443;SDS011;5778;47.856;12.154;2023-03-23T01:24:33;5.53;;;4.60;;
11443;SDS011;5778;47.856;12.154;2023-03-23T01:27:00;4.23;;;3.67;;
11443;SDS011;5778;47.856;12.154;2023-03-23T01:29:31;5.87;;;3.37;;
11443;SDS011;5778;47.856;12.154;2023-03-23T01:32:00;5.93;;;3.67;;
11443;SDS011;5778;47.856;12.154;2023-03-23T01:34:47;4.37;;;3.37;;
11443;SDS011;5778;47.856;12.154;2023-03-23T01:37:13;4.23;;;3.53;;
11443;SDS011;5778;47.856;12.154;2023-03-23T01:39:42;3.33;;;3.07;;
11443;SDS011;5778;47.856;12.154;2023-03-23T01:42:09;3.83;;;3.00;;
11443;SDS011;5778;47.856;12.154;2023-03-23T01:48:03;4.63;;;2.50;;
11443;SDS011;5778;47.856;12.154;2023-03-23T01:50:39;3.43;;;3.13;;
11443;SDS011;5778;47.856;12.154;2023-03-23T01:53:17;5.03;;;3.10;;
11443;SDS011;5778;47.856;12.154;2023-03-23T01:55:47;2.80;;;2.60;;
11443;SDS011;5778;47.856;12.154;2023-03-23T01:58:17;5.10;;;3.07;;
11443;SDS011;5778;47.856;12.154;2023-03-23T02:00:50;3.97;;;2.57;;
11443;SDS011;5778;47.856;12.154;2023-03-23T02:03:19;3.90;;;2.70;;
11443;SDS011;5778;47.856;12.154;2023-03-23T02:05:50;2.60;;;2.40;;
11443;SDS011;5778;47.856;12.154;2023-03-23T02:08:27;3.37;;;2.30;;
11443;SDS011;5778;47.856;12.154;2023-03-23T02:10:55;3.07;;;2.73;;
11443;SDS011;5778;47.856;12.154;2023-03-23T02:13:24;3.93;;;2.77;;
11443;SDS011;5778;47.856;12.154;2023-03-23T02:15:55;2.60;;;2.40;;
11443;SDS011;5778;47.856;12.154;2023-03-23T02:18:36;2.87;;;2.17;;
11443;SDS011;5778;47.856;12.154;2023-03-23T02:21:18;2.97;;;2.47;;
11443;SDS011;5778;47.856;12.154;2023-03-23T02:27:25;4.53;;;2.37;;
11443;SDS011;5778;47.856;12.154;2023-03-23T02:30:14;2.47;;;2.27;;
11443;SDS011;5778;47.856;12.154;2023-03-23T02:33:27;3.70;;;2.50;;
11443;SDS011;5778;47.856;12.154;2023-03-23T02:36:00;2.73;;;2.53;;
11443;SDS011;5778;47.856;12.154;2023-03-23T02:38:31;2.80;;;2.60;;
11443;SDS011;5778;47.856;12.154;2023-03-23T02:41:02;3.20;;;2.90;;
11443;SDS011;5778;47.856;12.154;2023-03-23T02:43:31;3.27;;;2.77;;
11443;SDS011;5778;47.856;12.154;2023-03-23T02:46:04;2.70;;;2.40;;
11443;SDS011;5778;47.856;12.154;2023-03-23T02:48:36;3.60;;;2.50;;
11443;SDS011;5778;47.856;12.154;2023-03-23T02:51:07;3.20;;;2.90;;
11443;SDS011;5778;47.856;12.154;2023-03-23T02:53:37;4.37;;;2.60;;
11443;SDS011;5778;47.856;12.154;2023-03-23T02:56:09;4.07;;;3.00;;
11443;SDS011;5778;47.856;12.154;2023-03-23T02:58:38;3.27;;;2.97;;
11443;SDS011;5778;47.856;12.154;2023-03-23T03:01:44;3.60;;;3.30;;
11443;SDS011;5778;47.856;12.154;2023-03-23T03:04:17;4.47;;;2.80;;
11443;SDS011;5778;47.856;12.154;2023-03-23T03:06:49;4.10;;;3.20;;
11443;SDS011;5778;47.856;12.154;2023-03-23T03:09:45;3.80;;;3.30;;
11443;SDS011;5778;47.856;12.154;2023-03-23T03:12:18;3.57;;;3.27;;
11443;SDS011;5778;47.856;12.154;2023-03-23T03:15:08;2.77;;;2.57;;
11443;SDS011;5778;47.856;12.154;2023-03-23T03:17:40;3.40;;;3.10;;
11443;SDS011;5778;47.856;12.154;2023-03-23T03:20:14;3.50;;;3.10;;
11443;SDS011;5778;47.856;12.154;2023-03-23T03:22:43;3.13;;;2.93;;
11443;SDS011;5778;47.856;12.154;2023-03-23T03:25:13;3.80;;;3.50;;
11443;SDS011;5778;47.856;12.154;2023-03-23T03:27:43;4.67;;;4.17;;
11443;SDS011;5778;47.856;12.154;2023-03-23T03:30:22;4.40;;;4.00;;
11443;SDS011;5778;47.856;12.154;2023-03-23T03:33:00;6.03;;;4.70;;
11443;SDS011;5778;47.856;12.154;2023-03-23T03:35:31;6.27;;;4.57;;
11443;SDS011;5778;47.856;12.154;2023-03-23T03:38:05;6.47;;;4.20;;
11443;SDS011;5778;47.856;12.154;2023-03-23T03:40:33;6.70;;;4.17;;
11443;SDS011;5778;47.856;12.154;2023-03-23T03:43:00;3.37;;;3.17;;
11443;SDS011;5778;47.856;12.154;2023-03-23T03:45:28;4.67;;;3.70;;
11443;SDS011;5778;47.856;12.154;2023-03-23T03:47:55;4.07;;;3.77;;
11443;SDS011;5778;47.856;12.154;2023-03-23T03:50:22;4.43;;;3.63;;
11443;SDS011;5778;47.856;12.154;2023-03-23T03:53:07;4.40;;;4.00;;
11443;SDS011;5778;47.856;12.154;2023-03-23T03:55:35;4.40;;;4.00;;
11443;SDS011;5778;47.856;12.154;2023-03-23T03:58:06;4.70;;;4.20;;
11443;SDS011;5778;47.856;12.154;2023-03-23T04:00:59;7.63;;;4.57;;
11443;SDS011;5778;47.856;12.154;2023-03-23T04:03:36;5.10;;;4.60;;
11443;SDS011;5778;47.856;12.154;2023-03-23T04:06:12;6.07;;;4.73;;
11443;SDS011;5778;47.856;12.154;2023-03-23T04:08:41;8.10;;;5.13;;
11443;SDS011;5778;47.856;12.154;2023-03-23T04:11:10;4.93;;;4.27;;
11443;SDS011;5778;47.856;12.154;2023-03-23T04:13:39;5.27;;;4.63;;
11443;SDS011;5778;47.856;12.154;2023-03-23T04:16:20;5.70;;;4.67;;
11443;SDS011;5778;47.856;12.154;2023-03-23T04:18:48;6.37;;;4.70;;
11443;SDS011;5778;47.856;12.154;2023-03-23T04:21:16;6.50;;;4.70;;
11443;SDS011;5778;47.856;12.154;2023-03-23T04:26:54;4.33;;;3.80;;
11443;SDS011;5778;47.856;12.154;2023-03-23T04:29:25;4.37;;;3.97;;
11443;SDS011;5778;47.856;12.154;2023-03-23T04:31:55;5.93;;;4.30;;
11443;SDS011;5778;47.856;12.154;2023-03-23T04:37:54;3.60;;;3.30;;
11443;SDS011;5778;47.856;12.154;2023-03-23T04:40:24;5.30;;;3.90;;
11443;SDS011;5778;47.856;12.154;2023-03-23T04:43:24;4.50;;;3.90;;
11443;SDS011;5778;47.856;12.154;2023-03-23T04:46:10;4.80;;;3.90;;
11443;SDS011;5778;47.856;12.154;2023-03-23T04:48:38;4.53;;;4.13;;
11443;SDS011;5778;47.856;12.154;2023-03-23T04:51:12;4.30;;;3.90;;
11443;SDS011;5778;47.856;12.154;2023-03-23T04:53:56;4.90;;;4.40;;
11443;SDS011;5778;47.856;12.154;2023-03-23T04:56:30;4.63;;;4.10;;
11443;SDS011;5778;47.856;12.154;2023-03-23T04:59:02;4.83;;;4.13;;
11443;SDS011;5778;47.856;12.154;2023-03-23T05:01:40;4.70;;;4.30;;
11443;SDS011;5778;47.856;12.154;2023-03-23T05:04:19;5.67;;;4.80;;
11443;SDS011;5778;47.856;12.154;2023-03-23T05:07:01;4.00;;;3.60;;
11443;SDS011;5778;47.856;12.154;2023-03-23T05:09:31;4.80;;;4.30;;
11443;SDS011;5778;47.856;12.154;2023-03-23T05:12:04;4.50;;;4.10;;
11443;SDS011;5778;47.856;12.154;2023-03-23T05:14:47;5.33;;;4.10;;
11443;SDS011;5778;47.856;12.154;2023-03-23T05:17:18;5.47;;;4.43;;
11443;SDS011;5778;47.856;12.154;2023-03-23T05:19:49;5.47;;;4.43;;
11443;SDS011;5778;47.856;12.154;2023-03-23T05:22:32;6.07;;;4.60;;
11443;SDS011;5778;47.856;12.154;2023-03-23T05:25:00;5.27;;;4.20;;
11443;SDS011;5778;47.856;12.154;2023-03-23T05:27:33;4.77;;;4.10;;
11443;SDS011;5778;47.856;12.154;2023-03-23T05:30:09;6.83;;;5.50;;
11443;SDS011;5778;47.856;12.154;2023-03-23T05:32:41;5.33;;;4.60;;
11443;SDS011;5778;47.856;12.154;2023-03-23T05:35:33;6.07;;;4.63;;
11443;SDS011;5778;47.856;12.154;2023-03-23T05:38:02;5.10;;;4.63;;
11443;SDS011;5778;47.856;12.154;2023-03-23T05:40:30;6.07;;;4.80;;
11443;SDS011;5778;47.856;12.154;2023-03-23T05:43:07;6.43;;;4.37;;
11443;SDS011;5778;47.856;12.154;2023-03-23T05:45:53;8.93;;;4.67;;
11443;SDS011;5778;47.856;12.154;2023-03-23T05:48:20;8.30;;;4.30;;
11443;SDS011;5778;47.856;12.154;2023-03-23T05:50:47;4.63;;;4.23;;
11443;SDS011;5778;47.856;12.154;2023-03-23T05:56:11;5.67;;;4.57;;
11443;SDS011;5778;47.856;12.154;2023-03-23T05:59:05;5.27;;;4.43;;
11443;SDS011;5778;47.856;12.154;2023-03-23T06:01:34;6.40;;;4.67;;
11443;SDS011;5778;47.856;12.154;2023-03-23T06:07:14;6.90;;;4.80;;
11443;SDS011;5778;47.856;12.154;2023-03-23T06:09:50;5.67;;;5.17;;
11443;SDS011;5778;47.856;12.154;2023-03-23T06:12:23;6.27;;;4.90;;
11443;SDS011;5778;47.856;12.154;2023-03-23T06:15:01;5.83;;;4.60;;
11443;SDS011;5778;47.856;12.154;2023-03-23T06:17:49;6.80;;;5.13;;
11443;SDS011;5778;47.856;12.154;2023-03-23T06:20:22;5.23;;;4.67;;
11443;SDS011;5778;47.856;12.154;2023-03-23T06:25:56;4.83;;;4.33;;
11443;SDS011;5778;47.856;12.154;2023-03-23T06:28:26;5.43;;;4.10;;
11443;SDS011;5778;47.856;12.154;2023-03-23T06:30:58;6.03;;;4.87;;
11443;SDS011;5778;47.856;12.154;2023-03-23T06:33:38;5.20;;;4.70;;
11443;SDS011;5778;47.856;12.154;2023-03-23T06:36:41;7.43;;;5.00;;
11443;SDS011;5778;47.856;12.154;2023-03-23T06:39:13;5.40;;;4.90;;
11443;SDS011;5778;47.856;12.154;2023-03-23T06:42:01;5.90;;;4.87;;
11443;SDS011;5778;47.856;12.154;2023-03-23T06:44:32;9.37;;;5.50;;
11443;SDS011;5778;47.856;12.154;2023-03-23T06:47:01;8.03;;;5.50;;
11443;SDS011;5778;47.856;12.154;2023-03-23T06:49:33;7.43;;;5.47;;
11443;SDS011;5778;47.856;12.154;2023-03-23T06:52:23;10.77;;;5.93;;
11443;SDS011;5778;47.856;12.154;2023-03-23T06:58:03;7.47;;;4.97;;
11443;SDS011;5778;47.856;12.154;2023-03-23T07:00:31;9.17;;;5.27;;
11443;SDS011;5778;47.856;12.154;2023-03-23T07:03:02;14.70;;;6.23;;
11443;SDS011;5778;47.856;12.154;2023-03-23T07:05:30;6.30;;;5.60;;
11443;SDS011;5778;47.856;12.154;2023-03-23T07:07:59;8.23;;;5.83;;
11443;SDS011;5778;47.856;12.154;2023-03-23T07:10:33;7.47;;;6.00;;
11443;SDS011;5778;47.856;12.154;2023-03-23T07:15:58;12.07;;;7.67;;
11443;SDS011;5778;47.856;12.154;2023-03-23T07:18:27;11.50;;;7.40;;
11443;SDS011;5778;47.856;12.154;2023-03-23T07:20:57;11.27;;;6.97;;
11443;SDS011;5778;47.856;12.154;2023-03-23T07:23:29;11.07;;;6.30;;
11443;SDS011;5778;47.856;12.154;2023-03-23T07:26:00;8.93;;;6.30;;
11443;SDS011;5778;47.856;12.154;2023-03-23T07:28:34;8.33;;;5.60;;
11443;SDS011;5778;47.856;12.154;2023-03-23T07:31:13;7.13;;;5.00;;
11443;SDS011;5778;47.856;12.154;2023-03-23T07:37:14;6.47;;;5.53;;
11443;SDS011;5778;47.856;12.154;2023-03-23T07:39:45;5.87;;;5.23;;
11443;SDS011;5778;47.856;12.154;2023-03-23T07:42:12;6.67;;;4.73;;
11443;SDS011;5778;47.856;12.154;2023-03-23T07:45:06;12.00;;;4.93;;
11443;SDS011;5778;47.856;12.154;2023-03-23T07:47:34;6.23;;;4.97;;
11443;SDS011;5778;47.856;12.154;2023-03-23T07:50:01;6.47;;;5.30;;
11443;SDS011;5778;47.856;12.154;2023-03-23T07:52:38;7.80;;;5.27;;
11443;SDS011;5778;47.856;12.154;2023-03-23T07:55:07;8.83;;;6.27;;
11443;SDS011;5778;47.856;12.154;2023-03-23T07:58:06;7.67;;;5.60;;
11443;SDS011;5778;47.856;12.154;2023-03-23T08:00:34;7.40;;;5.20;;
11443;SDS011;5778;47.856;12.154;2023-03-23T08:03:17;9.03;;;5.60;;
11443;SDS011;5778;47.856;12.154;2023-03-23T08:06:08;5.90;;;5.20;;
11443;SDS011;5778;47.856;12.154;2023-03-23T08:08:51;7.30;;;4.93;;
11443;SDS011;5778;47.856;12.154;2023-03-23T08:11:50;6.37;;;4.50;;
11443;SDS011;5778;47.856;12.154;2023-03-23T08:14:43;4.30;;;3.90;;
11443;SDS011;5778;47.856;12.154;2023-03-23T08:17:30;6.20;;;3.97;;
11443;SDS011;5778;47.856;12.154;2023-03-23T08:20:14;4.30;;;3.90;;
11443;SDS011;5778;47.856;12.154;2023-03-23T08:22:59;6.70;;;4.20;;
11443;SDS011;5778;47.856;12.154;2023-03-23T08:25:39;4.33;;;3.93;;
11443;SDS011;5778;47.856;12.154;2023-03-23T08:28:25;5.00;;;4.47;;
11443;SDS011;5778;47.856;12.154;2023-03-23T08:31:15;5.43;;;4.30;;
11443;SDS011;5778;47.856;12.154;2023-03-23T08:37:37;4.93;;;3.80;;
11443;SDS011;5778;47.856;12.154;2023-03-23T08:40:23;4.13;;;3.70;;
11443;SDS011;5778;47.856;12.154;2023-03-23T08:43:08;3.63;;;3.33;;
11443;SDS011;5778;47.856;12.154;2023-03-23T08:45:54;4.80;;;3.70;;
11443;SDS011;5778;47.856;12.154;2023-03-23T08:48:41;4.33;;;3.93;;
11443;SDS011;5778;47.856;12.154;2023-03-23T08:51:27;7.67;;;3.50;;
11443;SDS011;5778;47.856;12.154;2023-03-23T08:54:15;3.83;;;3.53;;
11443;SDS011;5778;47.856;12.154;2023-03-23T08:57:01;5.33;;;3.70;;
11443;SDS011;5778;47.856;12.154;2023-03-23T09:00:06;4.70;;;3.43;;
11443;SDS011;5778;47.856;12.154;2023-03-23T09:03:00;4.67;;;3.40;;
11443;SDS011;5778;47.856;12.154;2023-03-23T09:05:48;3.77;;;3.43;;
11443;SDS011;5778;47.856;12.154;2023-03-23T09:08:16;3.93;;;3.47;;
11443;SDS011;5778;47.856;12.154;2023-03-23T09:10:44;5.13;;;3.80;;
11443;SDS011;5778;47.856;12.154;2023-03-23T09:13:20;4.97;;;3.90;;
11443;SDS011;5778;47.856;12.154;2023-03-23T09:15:48;3.93;;;3.63;;
11443;SDS011;5778;47.856;12.154;2023-03-23T09:18:15;4.27;;;3.47;;
11443;SDS011;5778;47.856;12.154;2023-03-23T09:20:43;4.53;;;3.53;;
11443;SDS011;5778;47.856;12.154;2023-03-23T09:23:14;4.53;;;3.13;;
11443;SDS011;5778;47.856;12.154;2023-03-23T09:25:41;4.03;;;3.73;;
11443;SDS011;5778;47.856;12.154;2023-03-23T09:28:08;6.50;;;3.50;;
11443;SDS011;5778;47.856;12.154;2023-03-23T09:30:36;4.00;;;3.60;;
11443;SDS011;5778;47.856;12.154;2023-03-23T09:33:10;3.23;;;3.03;;
11443;SDS011;5778;47.856;12.154;2023-03-23T09:35:38;5.03;;;3.40;;
11443;SDS011;5778;47.856;12.154;2023-03-23T09:38:07;4.53;;;3.27;;
11443;SDS011;5778;47.856;12.154;2023-03-23T09:40:38;5.27;;;3.37;;
11443;SDS011;5778;47.856;12.154;2023-03-23T09:46:21;4.80;;;3.40;;
11443;SDS011;5778;47.856;12.154;2023-03-23T09:48:58;4.30;;;3.80;;
11443;SDS011;5778;47.856;12.154;2023-03-23T09:51:30;5.57;;;3.40;;
11443;SDS011;5778;47.856;12.154;2023-03-23T09:54:09;3.77;;;3.43;;
11443;SDS011;5778;47.856;12.154;2023-03-23T09:56:41;5.53;;;3.60;;
11443;SDS011;5778;47.856;12.154;2023-03-23T09:59:10;7.87;;;3.23;;
11443;SDS011;5778;47.856;12.154;2023-03-23T10:01:42;3.77;;;3.47;;
11443;SDS011;5778;47.856;12.154;2023-03-23T10:04:28;4.33;;;3.40;;
11443;SDS011;5778;47.856;12.154;2023-03-23T10:07:00;4.57;;;3.30;;
11443;SDS011;5778;47.856;12.154;2023-03-23T10:09:35;4.43;;;3.47;;
11443;SDS011;5778;47.856;12.154;2023-03-23T10:12:05;4.27;;;3.53;;
11443;SDS011;5778;47.856;12.154;2023-03-23T10:14:55;5.00;;;2.90;;
11443;SDS011;5778;47.856;12.154;2023-03-23T10:17:29;4.07;;;3.33;;
11443;SDS011;5778;47.856;12.154;2023-03-23T10:20:09;3.43;;;3.00;;
11443;SDS011;5778;47.856;12.154;2023-03-23T10:25:41;4.53;;;3.00;;
11443;SDS011;5778;47.856;12.154;2023-03-23T10:28:35;3.67;;;3.37;;
11443;SDS011;5778;47.856;12.154;2023-03-23T10:31:04;5.20;;;3.47;;
11443;SDS011;5778;47.856;12.154;2023-03-23T10:33:38;7.20;;;3.67;;
11443;SDS011;5778;47.856;12.154;2023-03-23T10:36:10;3.73;;;2.80;;
11443;SDS011;5778;47.856;12.154;2023-03-23T10:38:42;3.37;;;3.00;;
11443;SDS011;5778;47.856;12.154;2023-03-23T10:41:12;5.70;;;3.37;;
11443;SDS011;5778;47.856;12.154;2023-03-23T10:46:29;4.60;;;3.57;;
11443;SDS011;5778;47.856;12.154;2023-03-23T10:49:02;5.83;;;3.70;;
11443;SDS011;5778;47.856;12.154;2023-03-23T10:51:36;4.13;;;3.37;;
11443;SDS011;5778;47.856;12.154;2023-03-23T10:57:12;7.43;;;4.17;;
11443;SDS011;5778;47.856;12.154;2023-03-23T10:59:47;6.87;;;4.27;;
11443;SDS011;5778;47.856;12.154;2023-03-23T11:02:15;6.43;;;4.40;;
11443;SDS011;5778;47.856;12.154;2023-03-23T11:04:54;5.30;;;4.47;;
11443;SDS011;5778;47.856;12.154;2023-03-23T11:07:27;4.20;;;3.80;;
11443;SDS011;5778;47.856;12.154;2023-03-23T11:09:56;4.90;;;4.50;;
11443;SDS011;5778;47.856;12.154;2023-03-23T11:12:32;4.47;;;4.07;;
11443;SDS011;5778;47.856;12.154;2023-03-23T11:15:09;5.87;;;4.23;;
11443;SDS011;5778;47.856;12.154;2023-03-23T11:17:54;4.87;;;4.37;;
11443;SDS011;5778;47.856;12.154;2023-03-23T11:20:24;5.40;;;4.10;;
11443;SDS011;5778;47.856;12.154;2023-03-23T11:23:03;6.03;;;4.20;;
11443;SDS011;5778;47.856;12.154;2023-03-23T11:25:48;5.63;;;4.30;;
11443;SDS011;5778;47.856;12.154;2023-03-23T11:28:17;4.23;;;3.73;;
11443;SDS011;5778;47.856;12.154;2023-03-23T11:30:45;6.30;;;4.20;;
11443;SDS011;5778;47.856;12.154;2023-03-23T11:33:17;4.83;;;4.33;;
11443;SDS011;5778;47.856;12.154;2023-03-23T11:35:44;4.37;;;3.97;;
11443;SDS011;5778;47.856;12.154;2023-03-23T11:38:17;5.20;;;3.90;;
11443;SDS011;5778;47.856;12.154;2023-03-23T11:40:47;5.93;;;4.20;;
11443;SDS011;5778;47.856;12.154;2023-03-23T11:43:21;4.93;;;4.00;;
11443;SDS011;5778;47.856;12.154;2023-03-23T11:45:52;5.10;;;3.90;;
11443;SDS011;5778;47.856;12.154;2023-03-23T11:48:26;6.37;;;4.60;;
11443;SDS011;5778;47.856;12.154;2023-03-23T11:51:01;8.20;;;5.07;;
11443;SDS011;5778;47.856;12.154;2023-03-23T11:56:56;7.37;;;4.00;;
11443;SDS011;5778;47.856;12.154;2023-03-23T11:59:27;4.90;;;4.40;;
11443;SDS011;5778;47.856;12.154;2023-03-23T12:02:00;4.87;;;4.37;;
11443;SDS011;5778;47.856;12.154;2023-03-23T12:04:46;7.17;;;4.80;;
11443;SDS011;5778;47.856;12.154;2023-03-23T12:07:41;6.80;;;4.20;;
11443;SDS011;5778;47.856;12.154;2023-03-23T12:10:24;5.20;;;3.90;;
11443;SDS011;5778;47.856;12.154;2023-03-23T12:13:12;8.60;;;4.80;;
11443;SDS011;5778;47.856;12.154;2023-03-23T12:15:59;10.27;;;5.10;;
11443;SDS011;5778;47.856;12.154;2023-03-23T12:18:39;6.77;;;4.07;;
11443;SDS011;5778;47.856;12.154;2023-03-23T12:21:16;6.73;;;4.97;;
11443;SDS011;5778;47.856;12.154;2023-03-23T12:24:09;5.77;;;4.27;;
11443;SDS011;5778;47.856;12.154;2023-03-23T12:26:50;6.10;;;4.53;;
11443;SDS011;5778;47.856;12.154;2023-03-23T12:29:29;8.00;;;5.07;;
11443;SDS011;5778;47.856;12.154;2023-03-23T12:35:14;8.90;;;4.90;;
11443;SDS011;5778;47.856;12.154;2023-03-23T12:37:56;7.20;;;4.97;;
11443;SDS011;5778;47.856;12.154;2023-03-23T12:43:19;5.40;;;4.90;;
11443;SDS011;5778;47.856;12.154;2023-03-23T12:48:54;7.10;;;5.23;;
11443;SDS011;5778;47.856;12.154;2023-03-23T12:51:27;7.47;;;5.00;;
11443;SDS011;5778;47.856;12.154;2023-03-23T12:57:06;8.27;;;5.53;;
11443;SDS011;5778;47.856;12.154;2023-03-23T12:59:40;6.97;;;5.77;;
11443;SDS011;5778;47.856;12.154;2023-03-23T13:02:14;6.37;;;4.50;;
11443;SDS011;5778;47.856;12.154;2023-03-23T13:07:37;5.33;;;4.07;;
11443;SDS011;5778;47.856;12.154;2023-03-23T13:10:12;6.40;;;4.60;;
11443;SDS011;5778;47.856;12.154;2023-03-23T13:12:48;4.90;;;4.37;;
11443;SDS011;5778;47.856;12.154;2023-03-23T13:15:20;4.53;;;4.03;;
11443;SDS011;5778;47.856;12.154;2023-03-23T13:17:58;4.40;;;4.00;;
11443;SDS011;5778;47.856;12.154;2023-03-23T13:20:34;5.93;;;4.07;;
11443;SDS011;5778;47.856;12.154;2023-03-23T13:26:14;3.67;;;3.37;;
11443;SDS011;5778;47.856;12.154;2023-03-23T13:31:34;3.33;;;3.03;;
11443;SDS011;5778;47.856;12.154;2023-03-23T13:34:04;3.30;;;3.00;;
11443;SDS011;5778;47.856;12.154;2023-03-23T13:36:35;3.40;;;3.03;;
11443;SDS011;5778;47.856;12.154;2023-03-23T13:39:05;4.00;;;3.60;;
11443;SDS011;5778;47.856;12.154;2023-03-23T13:41:47;5.13;;;3.60;;
11443;SDS011;5778;47.856;12.154;2023-03-23T13:44:16;5.73;;;3.70;;
11443;SDS011;5778;47.856;12.154;2023-03-23T13:46:55;3.70;;;3.40;;
11443;SDS011;5778;47.856;12.154;2023-03-23T13:49:24;4.17;;;3.30;;
11443;SDS011;5778;47.856;12.154;2023-03-23T13:51:58;4.97;;;3.20;;
11443;SDS011;5778;47.856;12.154;2023-03-23T13:57:51;3.80;;;3.40;;
11443;SDS011;5778;47.856;12.154;2023-03-23T14:00:26;5.27;;;3.10;;
11443;SDS011;5778;47.856;12.154;2023-03-23T14:03:10;3.40;;;3.03;;
11443;SDS011;5778;47.856;12.154;2023-03-23T14:05:41;2.70;;;2.27;;
11443;SDS011;5778;47.856;12.154;2023-03-23T14:11:10;3.50;;;2.60;;
11443;SDS011;5778;47.856;12.154;2023-03-23T14:13:44;3.50;;;2.43;;
11443;SDS011;5778;47.856;12.154;2023-03-23T14:16:17;4.67;;;2.60;;
11443;SDS011;5778;47.856;12.154;2023-03-23T14:18:49;3.23;;;2.40;;
11443;SDS011;5778;47.856;12.154;2023-03-23T14:21:22;3.07;;;2.43;;
11443;SDS011;5778;47.856;12.154;2023-03-23T14:23:56;4.17;;;2.23;;
11443;SDS011;5778;47.856;12.154;2023-03-23T14:26:27;4.43;;;2.40;;
11443;SDS011;5778;47.856;12.154;2023-03-23T14:28:54;3.53;;;2.53;;
11443;SDS011;5778;47.856;12.154;2023-03-23T14:31:22;3.17;;;2.43;;
11443;SDS011;5778;47.856;12.154;2023-03-23T14:33:54;2.97;;;2.70;;
11443;SDS011;5778;47.856;12.154;2023-03-23T14:36:23;4.53;;;2.60;;
11443;SDS011;5778;47.856;12.154;2023-03-23T14:39:01;4.10;;;2.50;;
11443;SDS011;5778;47.856;12.154;2023-03-23T14:41:32;2.57;;;2.37;;
11443;SDS011;5778;47.856;12.154;2023-03-23T14:44:08;3.73;;;2.60;;
11443;SDS011;5778;47.856;12.154;2023-03-23T14:46:39;5.90;;;2.63;;
11443;SDS011;5778;47.856;12.154;2023-03-23T14:49:10;3.63;;;2.43;;
11443;SDS011;5778;47.856;12.154;2023-03-23T14:51:46;3.37;;;2.30;;
11443;SDS011;5778;47.856;12.154;2023-03-23T14:54:18;2.93;;;2.50;;
11443;SDS011;5778;47.856;12.154;2023-03-23T14:56:49;3.37;;;2.40;;
11443;SDS011;5778;47.856;12.154;2023-03-23T14:59:16;2.90;;;2.40;;
11443;SDS011;5778;47.856;12.154;2023-03-23T15:01:43;3.27;;;2.37;;
11443;SDS011;5778;47.856;12.154;2023-03-23T15:07:02;2.50;;;2.30;;
11443;SDS011;5778;47.856;12.154;2023-03-23T15:09:33;2.20;;;2.00;;
11443;SDS011;5778;47.856;12.154;2023-03-23T15:12:01;2.30;;;2.10;;
11443;SDS011;5778;47.856;12.154;2023-03-23T15:14:42;2.73;;;1.90;;
11443;SDS011;5778;47.856;12.154;2023-03-23T15:17:17;3.10;;;1.50;;
11443;SDS011;5778;47.856;12.154;2023-03-23T15:19:46;1.87;;;1.60;;
11443;SDS011;5778;47.856;12.154;2023-03-23T15:22:15;2.97;;;1.37;;
11443;SDS011;5778;47.856;12.154;2023-03-23T15:24:50;2.43;;;1.33;;
11443;SDS011;5778;47.856;12.154;2023-03-23T15:27:23;1.47;;;1.37;;
11443;SDS011;5778;47.856;12.154;2023-03-23T15:29:53;2.30;;;1.40;;
11443;SDS011;5778;47.856;12.154;2023-03-23T15:32:23;1.90;;;1.50;;
11443;SDS011;5778;47.856;12.154;2023-03-23T15:34:52;3.27;;;1.23;;
11443;SDS011;5778;47.856;12.154;2023-03-23T15:37:21;1.43;;;1.33;;
11443;SDS011;5778;47.856;12.154;2023-03-23T15:39:53;1.60;;;1.13;;
11443;SDS011;5778;47.856;12.154;2023-03-23T15:42:22;1.80;;;1.30;;
11443;SDS011;5778;47.856;12.154;2023-03-23T15:45:12;2.97;;;1.20;;
11443;SDS011;5778;47.856;12.154;2023-03-23T15:47:47;1.77;;;1.33;;
11443;SDS011;5778;47.856;12.154;2023-03-23T15:50:16;1.40;;;1.30;;
11443;SDS011;5778;47.856;12.154;2023-03-23T15:52:51;1.43;;;1.30;;
11443;SDS011;5778;47.856;12.154;2023-03-23T15:55:21;1.87;;;1.30;;
11443;SDS011;5778;47.856;12.154;2023-03-23T15:57:51;3.57;;;1.27;;
11443;SDS011;5778;47.856;12.154;2023-03-23T16:00:19;2.63;;;1.67;;
11443;SDS011;5778;47.856;12.154;2023-03-23T16:02:58;3.83;;;1.73;;
11443;SDS011;5778;47.856;12.154;2023-03-23T16:05:27;1.50;;;1.40;;
11443;SDS011;5778;47.856;12.154;2023-03-23T16:07:54;1.43;;;1.33;;
11443;SDS011;5778;47.856;12.154;2023-03-23T16:10:22;1.40;;;1.30;;
11443;SDS011;5778;47.856;12.154;2023-03-23T16:13:06;1.50;;;1.40;;
11443;SDS011;5778;47.856;12.154;2023-03-23T16:15:33;1.90;;;1.60;;
11443;SDS011;5778;47.856;12.154;2023-03-23T16:18:00;1.83;;;1.60;;
11443;SDS011;5778;47.856;12.154;2023-03-23T16:20:28;2.00;;;1.50;;
11443;SDS011;5778;47.856;12.154;2023-03-23T16:22:58;2.03;;;1.40;;
11443;SDS011;5778;47.856;12.154;2023-03-23T16:25:27;1.70;;;1.60;;
11443;SDS011;5778;47.856;12.154;2023-03-23T16:27:54;3.87;;;2.10;;
11443;SDS011;5778;47.856;12.154;2023-03-23T16:30:22;6.67;;;4.70;;
11443;SDS011;5778;47.856;12.154;2023-03-23T16:32:55;2.57;;;2.03;;
11443;SDS011;5778;47.856;12.154;2023-03-23T16:35:23;5.93;;;3.80;;
11443;SDS011;5778;47.856;12.154;2023-03-23T16:37:50;4.63;;;3.00;;
11443;SDS011;5778;47.856;12.154;2023-03-23T16:40:19;2.63;;;2.43;;
11443;SDS011;5778;47.856;12.154;2023-03-23T16:45:42;1.60;;;1.50;;
11443;SDS011;5778;47.856;12.154;2023-03-23T16:48:11;3.33;;;1.83;;
11443;SDS011;5778;47.856;12.154;2023-03-23T16:50:40;2.27;;;1.63;;
11443;SDS011;5778;47.856;12.154;2023-03-23T16:53:09;2.90;;;2.07;;
11443;SDS011;5778;47.856;12.154;2023-03-23T16:55:36;2.10;;;1.93;;
11443;SDS011;5778;47.856;12.154;2023-03-23T16:58:04;2.43;;;2.23;;